Time;durP1;ratioP1;P1;durP2;ratioP2;P2;SDS_P1;SDS_P2;PMS_P1;PMS_P2;Temp;Humidity;BMP_temperature;BMP_pressure;BME280_temperature;BME280_humidity;BME280_pressure;Samples;Min_cycle;Max_cycle;Signal;HPM_P1;HPM_P2
2022/11/14 00:00:59;;;;;;;0.00;0.00;;;;;;;;;;5095951;28;20020;-72
2022/11/14 00:03:26;;;;;;;0.00;0.00;;;;;;;;;;5096460;28;20379;-72
2022/11/14 00:05:52;;;;;;;0.00;0.00;;;;;;;;;;5095965;28;20032;-72
2022/11/14 00:08:26;;;;;;;0.00;0.00;;;;;;;;;;5096177;28;20028;-73
2022/11/14 00:10:52;;;;;;;0.00;0.00;;;;;;;;;;5096051;28;20024;-71
2022/11/14 00:13:19;;;;;;;0.00;0.00;;;;;;;;;;5077568;28;20063;-71
2022/11/14 00:15:49;;;;;;;0.00;0.00;;;;;;;;;;5077630;28;20024;-71
2022/11/14 00:18:15;;;;;;;0.00;0.00;;;;;;;;;;5095858;28;20031;-72
2022/11/14 00:20:42;;;;;;;0.00;0.00;;;;;;;;;;5077635;28;20078;-71
2022/11/14 00:23:08;;;;;;;0.00;0.00;;;;;;;;;;5094740;28;20114;-71
2022/11/14 00:25:34;;;;;;;0.00;0.00;;;;;;;;;;5095365;28;20631;-71
2022/11/14 00:28:00;;;;;;;0.00;0.00;;;;;;;;;;5095344;28;20024;-71
2022/11/14 00:30:27;;;;;;;0.00;0.00;;;;;;;;;;5077121;28;20403;-71
2022/11/14 00:32:53;;;;;;;0.00;0.00;;;;;;;;;;5092636;28;20027;-70
2022/11/14 00:35:20;;;;;;;0.00;0.00;;;;;;;;;;5095269;28;20108;-73
2022/11/14 00:37:46;;;;;;;0.00;0.00;;;;;;;;;;5095504;28;20032;-72
2022/11/14 00:40:13;;;;;;;0.00;0.00;;;;;;;;;;5077188;28;20475;-73
2022/11/14 00:42:39;;;;;;;0.00;0.00;;;;;;;;;;5076840;28;20032;-73
2022/11/14 00:45:06;;;;;;;0.00;0.00;;;;;;;;;;5094768;28;20039;-71
2022/11/14 00:47:32;;;;;;;0.00;0.00;;;;;;;;;;5094980;28;20467;-72
2022/11/14 00:49:59;;;;;;;0.00;0.00;;;;;;;;;;5094835;28;20024;-71
2022/11/14 00:52:25;;;;;;;0.00;0.00;;;;;;;;;;5077008;28;20443;-71
2022/11/14 00:54:51;;;;;;;0.00;0.00;;;;;;;;;;5095094;28;20028;-71
2022/11/14 00:57:17;;;;;;;0.00;0.00;;;;;;;;;;5076981;28;20460;-71
2022/11/14 00:59:44;;;;;;;0.00;0.00;;;;;;;;;;5093628;28;20459;-71
2022/11/14 01:02:10;;;;;;;0.00;0.00;;;;;;;;;;5094530;28;20264;-71
2022/11/14 01:04:36;;;;;;;0.00;0.00;;;;;;;;;;5094529;28;20035;-71
2022/11/14 01:07:03;;;;;;;0.00;0.00;;;;;;;;;;5094500;28;20028;-71
2022/11/14 01:09:29;;;;;;;0.00;0.00;;;;;;;;;;5076461;28;20028;-73
2022/11/14 01:11:55;;;;;;;0.00;0.00;;;;;;;;;;5094709;28;20089;-73
2022/11/14 01:14:22;;;;;;;0.00;0.00;;;;;;;;;;5075358;28;20056;-71
2022/11/14 01:16:48;;;;;;;0.00;0.00;;;;;;;;;;5091823;28;20344;-72
2022/11/14 01:19:14;;;;;;;0.00;0.00;;;;;;;;;;5094323;28;20062;-72
2022/11/14 01:21:41;;;;;;;0.00;0.00;;;;;;;;;;5076026;28;20032;-72
2022/11/14 01:24:07;;;;;;;0.00;0.00;;;;;;;;;;5093321;28;20107;-72
2022/11/14 01:26:33;;;;;;;0.00;0.00;;;;;;;;;;5094139;28;20524;-72
2022/11/14 01:29:00;;;;;;;0.00;0.00;;;;;;;;;;5075831;28;20024;-72
2022/11/14 01:31:26;;;;;;;0.00;0.00;;;;;;;;;;5075642;28;20388;-72
2022/11/14 01:33:53;;;;;;;0.00;0.00;;;;;;;;;;5093949;28;20024;-72
2022/11/14 01:36:20;;;;;;;0.00;0.00;;;;;;;;;;5093843;28;20036;-72
2022/11/14 01:38:47;;;;;;;0.00;0.00;;;;;;;;;;5072451;28;20020;-71
2022/11/14 01:41:14;;;;;;;0.00;0.00;;;;;;;;;;5073961;28;20089;-71
2022/11/14 01:43:40;;;;;;;0.00;0.00;;;;;;;;;;5072507;28;20174;-72
2022/11/14 01:46:19;;;;;;;0.00;0.00;;;;;;;;;;5086545;28;20024;-72
2022/11/14 01:48:47;;;;;;;0.00;0.00;;;;;;;;;;5092801;28;20024;-72
2022/11/14 01:51:13;;;;;;;0.00;0.00;;;;;;;;;;5093456;28;20475;-72
2022/11/14 01:53:40;;;;;;;0.00;0.00;;;;;;;;;;5074091;28;20020;-72
2022/11/14 01:56:07;;;;;;;0.00;0.00;;;;;;;;;;5092898;28;20028;-72
2022/11/14 01:58:35;;;;;;;0.00;0.00;;;;;;;;;;5086849;28;20471;-73
2022/11/14 02:01:01;;;;;;;0.00;0.00;;;;;;;;;;5092858;28;20471;-72
2022/11/14 02:03:28;;;;;;;0.00;0.00;;;;;;;;;;5072778;28;20028;-73
2022/11/14 02:05:55;;;;;;;0.00;0.00;;;;;;;;;;5070520;28;20380;-73
2022/11/14 02:08:22;;;;;;;0.00;0.00;;;;;;;;;;5071708;28;20506;-72
2022/11/14 02:10:48;;;;;;;0.00;0.00;;;;;;;;;;5087967;28;20028;-73
2022/11/14 02:13:15;;;;;;;0.00;0.00;;;;;;;;;;5070150;28;20052;-73
2022/11/14 02:15:41;;;;;;;0.00;0.00;;;;;;;;;;5091733;28;20023;-71
2022/11/14 02:18:07;;;;;;;0.00;0.00;;;;;;;;;;5089128;28;20450;-73
2022/11/14 02:20:36;;;;;;;0.00;0.00;;;;;;;;;;5068894;28;20047;-74
2022/11/14 02:23:02;;;;;;;0.00;0.00;;;;;;;;;;5070675;28;20379;-71
2022/11/14 02:25:29;;;;;;;0.00;0.00;;;;;;;;;;5089658;28;20157;-75
2022/11/14 02:27:56;;;;;;;0.00;0.00;;;;;;;;;;5091397;28;20077;-75
2022/11/14 02:30:22;;;;;;;0.00;0.00;;;;;;;;;;5088553;28;20024;-71
2022/11/14 02:32:49;;;;;;;0.00;0.00;;;;;;;;;;5071379;28;20529;-71
2022/11/14 02:35:15;;;;;;;0.00;0.00;;;;;;;;;;5070179;28;20049;-73
2022/11/14 02:37:42;;;;;;;0.00;0.00;;;;;;;;;;5072184;28;20039;-72
2022/11/14 02:40:08;;;;;;;0.00;0.00;;;;;;;;;;5072526;28;20032;-75
2022/11/14 02:42:35;;;;;;;0.00;0.00;;;;;;;;;;5065723;28;20077;-74
2022/11/14 02:45:01;;;;;;;0.00;0.00;;;;;;;;;;5088647;28;20036;-75
2022/11/14 02:47:27;;;;;;;0.00;0.00;;;;;;;;;;5087833;28;20475;-74
2022/11/14 02:49:54;;;;;;;0.00;0.00;;;;;;;;;;5088225;28;20032;-77
2022/11/14 02:52:20;;;;;;;0.00;0.00;;;;;;;;;;5085940;28;20031;-76
2022/11/14 02:54:46;;;;;;;0.00;0.00;;;;;;;;;;5090791;28;20035;-75
2022/11/14 02:57:12;;;;;;;0.00;0.00;;;;;;;;;;5089559;28;20059;-77
2022/11/14 02:59:39;;;;;;;0.00;0.00;;;;;;;;;;5067622;28;20082;-76
2022/11/14 03:02:05;;;;;;;0.00;0.00;;;;;;;;;;5086636;28;20028;-70
2022/11/14 03:04:31;;;;;;;0.00;0.00;;;;;;;;;;5081688;28;20040;-74
2022/11/14 03:06:58;;;;;;;0.00;0.00;;;;;;;;;;5089739;28;20056;-78
2022/11/14 03:09:24;;;;;;;0.00;0.00;;;;;;;;;;5071160;28;20032;-74
2022/11/14 03:11:50;;;;;;;0.00;0.00;;;;;;;;;;5086490;28;20086;-71
2022/11/14 03:14:17;;;;;;;0.00;0.00;;;;;;;;;;5088535;28;20091;-73
2022/11/14 03:16:43;;;;;;;0.00;0.00;;;;;;;;;;5087238;28;20028;-73
2022/11/14 03:19:09;;;;;;;0.00;0.00;;;;;;;;;;5087458;28;20040;-74
2022/11/14 03:21:36;;;;;;;0.00;0.00;;;;;;;;;;5068020;28;20032;-73
2022/11/14 03:24:02;;;;;;;0.00;0.00;;;;;;;;;;5088580;28;20024;-72
2022/11/14 03:26:28;;;;;;;0.00;0.00;;;;;;;;;;5085713;28;20028;-74
2022/11/14 03:28:55;;;;;;;0.00;0.00;;;;;;;;;;5084775;28;20449;-74
2022/11/14 03:31:21;;;;;;;0.00;0.00;;;;;;;;;;5090509;28;20115;-72
2022/11/14 03:33:48;;;;;;;0.00;0.00;;;;;;;;;;5071616;28;20020;-72
2022/11/14 03:36:16;;;;;;;0.00;0.00;;;;;;;;;;5067909;28;20040;-73
2022/11/14 03:38:43;;;;;;;0.00;0.00;;;;;;;;;;5088401;28;20024;-73
2022/11/14 03:41:09;;;;;;;0.00;0.00;;;;;;;;;;5087903;28;20483;-73
2022/11/14 03:43:35;;;;;;;0.00;0.00;;;;;;;;;;5069291;28;20502;-74
2022/11/14 03:46:02;;;;;;;0.00;0.00;;;;;;;;;;5087719;28;20028;-71
2022/11/14 03:48:29;;;;;;;0.00;0.00;;;;;;;;;;5089682;28;20024;-72
2022/11/14 03:50:56;;;;;;;0.00;0.00;;;;;;;;;;5068973;28;20052;-72
2022/11/14 03:53:23;;;;;;;0.00;0.00;;;;;;;;;;5070721;28;20024;-72
2022/11/14 03:55:49;;;;;;;0.00;0.00;;;;;;;;;;5071318;28;20484;-71
2022/11/14 03:58:16;;;;;;;0.00;0.00;;;;;;;;;;5090445;28;20051;-73
2022/11/14 04:00:42;;;;;;;0.00;0.00;;;;;;;;;;5084946;28;20036;-72
2022/11/14 04:03:09;;;;;;;0.00;0.00;;;;;;;;;;5069608;28;20075;-75
2022/11/14 04:05:35;;;;;;;0.00;0.00;;;;;;;;;;5068957;28;20036;-73
2022/11/14 04:08:04;;;;;;;0.00;0.00;;;;;;;;;;5088394;28;20032;-73
2022/11/14 04:10:30;;;;;;;0.00;0.00;;;;;;;;;;5088330;28;20021;-73
2022/11/14 04:12:57;;;;;;;0.00;0.00;;;;;;;;;;5066739;28;20048;-73
2022/11/14 04:15:23;;;;;;;0.00;0.00;;;;;;;;;;5069772;28;20450;-73
2022/11/14 04:17:49;;;;;;;0.00;0.00;;;;;;;;;;5061548;28;20426;-71
2022/11/14 04:20:16;;;;;;;0.00;0.00;;;;;;;;;;5067680;28;20487;-73
2022/11/14 04:22:42;;;;;;;0.00;0.00;;;;;;;;;;5062498;28;20087;-74
2022/11/14 04:25:09;;;;;;;0.00;0.00;;;;;;;;;;5064096;28;20383;-73
2022/11/14 04:27:35;;;;;;;0.00;0.00;;;;;;;;;;5069435;28;20516;-73
2022/11/14 04:30:02;;;;;;;0.00;0.00;;;;;;;;;;5068166;28;20017;-74
2022/11/14 04:32:28;;;;;;;0.00;0.00;;;;;;;;;;5067261;28;20048;-72
2022/11/14 04:34:55;;;;;;;0.00;0.00;;;;;;;;;;5066134;28;20495;-74
2022/11/14 04:37:21;;;;;;;0.00;0.00;;;;;;;;;;5069238;28;20090;-74
2022/11/14 04:39:47;;;;;;;0.00;0.00;;;;;;;;;;5071067;28;20080;-72
2022/11/14 04:42:13;;;;;;;0.00;0.00;;;;;;;;;;5070042;28;20051;-74
2022/11/14 04:44:40;;;;;;;0.00;0.00;;;;;;;;;;5067822;28;20032;-72
2022/11/14 04:47:07;;;;;;;0.00;0.00;;;;;;;;;;5066695;28;20020;-74
2022/11/14 04:49:33;;;;;;;0.00;0.00;;;;;;;;;;5068959;28;20020;-73
2022/11/14 04:51:59;;;;;;;0.00;0.00;;;;;;;;;;5060790;28;20611;-71
2022/11/14 04:54:29;;;;;;;0.00;0.00;;;;;;;;;;5063664;28;20029;-75
2022/11/14 04:56:55;;;;;;;0.00;0.00;;;;;;;;;;5067420;28;20027;-74
2022/11/14 04:59:21;;;;;;;0.00;0.00;;;;;;;;;;5071812;28;20158;-76
2022/11/14 05:01:47;;;;;;;0.00;0.00;;;;;;;;;;5069352;28;20423;-77
2022/11/14 05:04:14;;;;;;;0.00;0.00;;;;;;;;;;5064709;28;20493;-74
2022/11/14 05:06:40;;;;;;;0.00;0.00;;;;;;;;;;5061070;28;20029;-75
2022/11/14 05:09:06;;;;;;;0.00;0.00;;;;;;;;;;5070515;28;20032;-77
2022/11/14 05:11:33;;;;;;;0.00;0.00;;;;;;;;;;5075288;28;20476;-76
2022/11/14 05:13:59;;;;;;;0.00;0.00;;;;;;;;;;5079732;28;20086;-80
2022/11/14 05:16:25;;;;;;;0.00;0.00;;;;;;;;;;5074983;28;20083;-78
2022/11/14 05:18:53;;;;;;;0.00;0.00;;;;;;;;;;5074703;28;20543;-77
2022/11/14 05:21:20;;;;;;;0.00;0.00;;;;;;;;;;5089305;28;20123;-79
2022/11/14 05:23:46;;;;;;;0.00;0.00;;;;;;;;;;5086282;28;20029;-77
2022/11/14 05:26:14;;;;;;;0.00;0.00;;;;;;;;;;5070862;28;20506;-78
2022/11/14 05:28:40;;;;;;;0.00;0.00;;;;;;;;;;5091713;28;20032;-77
2022/11/14 05:31:08;;;;;;;0.00;0.00;;;;;;;;;;5090126;28;20095;-76
2022/11/14 05:33:35;;;;;;;0.00;0.00;;;;;;;;;;5073318;28;20169;-77
2022/11/14 05:36:02;;;;;;;0.00;0.00;;;;;;;;;;5092182;28;20053;-80
2022/11/14 05:38:28;;;;;;;0.00;0.00;;;;;;;;;;5087848;28;20028;-76
2022/11/14 05:40:55;;;;;;;0.00;0.00;;;;;;;;;;5064787;28;20028;-73
2022/11/14 05:43:21;;;;;;;0.00;0.00;;;;;;;;;;5088564;28;20024;-78
2022/11/14 05:45:47;;;;;;;0.00;0.00;;;;;;;;;;5091814;28;20095;-75
2022/11/14 05:48:14;;;;;;;0.00;0.00;;;;;;;;;;5071096;28;20515;-77
2022/11/14 05:50:40;;;;;;;0.00;0.00;;;;;;;;;;5070912;28;20028;-76
2022/11/14 05:53:06;;;;;;;0.00;0.00;;;;;;;;;;5082131;28;20355;-77
2022/11/14 05:55:33;;;;;;;0.00;0.00;;;;;;;;;;5073675;28;20952;-77
2022/11/14 05:57:59;;;;;;;0.00;0.00;;;;;;;;;;5070750;28;20038;-77
2022/11/14 06:00:26;;;;;;;0.00;0.00;;;;;;;;;;5092615;28;20103;-76
2022/11/14 06:02:53;;;;;;;0.00;0.00;;;;;;;;;;5070709;28;20040;-77
2022/11/14 06:05:20;;;;;;;0.00;0.00;;;;;;;;;;5082749;28;20032;-76
2022/11/14 06:07:46;;;;;;;0.00;0.00;;;;;;;;;;5088141;28;20027;-77
2022/11/14 06:10:12;;;;;;;0.00;0.00;;;;;;;;;;5087322;28;20099;-78
2022/11/14 06:12:39;;;;;;;0.00;0.00;;;;;;;;;;5087408;28;20111;-78
2022/11/14 06:15:06;;;;;;;0.00;0.00;;;;;;;;;;5087390;28;20032;-76
2022/11/14 06:17:32;;;;;;;0.00;0.00;;;;;;;;;;5089711;28;20028;-76
2022/11/14 06:19:58;;;;;;;0.00;0.00;;;;;;;;;;5072341;28;20521;-76
2022/11/14 06:22:25;;;;;;;0.00;0.00;;;;;;;;;;5092861;28;20035;-78
2022/11/14 06:24:51;;;;;;;0.00;0.00;;;;;;;;;;5091101;28;20523;-76
2022/11/14 06:27:17;;;;;;;0.00;0.00;;;;;;;;;;5071965;28;20053;-75
2022/11/14 06:29:43;;;;;;;0.00;0.00;;;;;;;;;;5088955;28;20013;-75
2022/11/14 06:32:10;;;;;;;0.00;0.00;;;;;;;;;;5088485;28;20070;-75
2022/11/14 06:34:36;;;;;;;0.00;0.00;;;;;;;;;;5070648;28;20111;-75
2022/11/14 06:37:04;;;;;;;0.00;0.00;;;;;;;;;;5089469;28;20088;-75
2022/11/14 06:39:30;;;;;;;0.00;0.00;;;;;;;;;;5089912;28;20508;-76
2022/11/14 06:41:56;;;;;;;0.00;0.00;;;;;;;;;;5069897;28;20060;-77
2022/11/14 06:44:23;;;;;;;0.00;0.00;;;;;;;;;;5090538;28;20055;-75
2022/11/14 06:46:49;;;;;;;0.00;0.00;;;;;;;;;;5088747;28;20095;-76
2022/11/14 06:49:15;;;;;;;0.00;0.00;;;;;;;;;;5088445;28;20032;-75
2022/11/14 06:51:42;;;;;;;0.00;0.00;;;;;;;;;;5085257;28;20024;-76
2022/11/14 06:54:11;;;;;;;0.00;0.00;;;;;;;;;;5086049;28;20032;-74
2022/11/14 06:56:37;;;;;;;0.00;0.00;;;;;;;;;;5087850;28;20027;-73
2022/11/14 06:59:04;;;;;;;0.00;0.00;;;;;;;;;;5089745;28;20030;-74
2022/11/14 07:01:30;;;;;;;0.00;0.00;;;;;;;;;;5067343;28;20057;-74
2022/11/14 07:04:01;;;;;;;0.00;0.00;;;;;;;;;;5070023;28;20028;-74
2022/11/14 07:06:28;;;;;;;0.00;0.00;;;;;;;;;;5070466;28;20020;-74
2022/11/14 07:08:55;;;;;;;0.00;0.00;;;;;;;;;;5090076;28;20438;-74
2022/11/14 07:11:27;;;;;;;0.00;0.00;;;;;;;;;;5071179;28;20031;-75
2022/11/14 07:13:55;;;;;;;0.00;0.00;;;;;;;;;;5069061;28;20047;-75
2022/11/14 07:16:24;;;;;;;0.00;0.00;;;;;;;;;;5067969;28;20048;-77
2022/11/14 07:18:50;;;;;;;0.00;0.00;;;;;;;;;;5068762;28;20025;-76
2022/11/14 07:21:16;;;;;;;0.00;0.00;;;;;;;;;;5066975;28;20023;-75
2022/11/14 07:23:43;;;;;;;0.00;0.00;;;;;;;;;;5068943;28;20027;-73
2022/11/14 07:26:11;;;;;;;0.00;0.00;;;;;;;;;;5070322;28;20029;-72
2022/11/14 07:28:38;;;;;;;0.00;0.00;;;;;;;;;;5059943;28;20020;-74
2022/11/14 07:31:05;;;;;;;0.00;0.00;;;;;;;;;;5069597;28;20016;-74
2022/11/14 07:33:32;;;;;;;0.00;0.00;;;;;;;;;;5063791;28;20021;-74
2022/11/14 07:35:58;;;;;;;0.00;0.00;;;;;;;;;;5067317;28;20024;-77
2022/11/14 07:38:24;;;;;;;0.00;0.00;;;;;;;;;;5062062;28;20052;-76
2022/11/14 07:40:58;;;;;;;0.00;0.00;;;;;;;;;;5067963;28;20020;-73
2022/11/14 07:43:24;;;;;;;0.00;0.00;;;;;;;;;;5065674;28;20762;-76
2022/11/14 07:45:50;;;;;;;0.00;0.00;;;;;;;;;;5061698;28;20480;-75
2022/11/14 07:48:17;;;;;;;0.00;0.00;;;;;;;;;;5068639;28;20099;-76
2022/11/14 07:50:44;;;;;;;0.00;0.00;;;;;;;;;;5061715;28;20021;-75
2022/11/14 07:53:10;;;;;;;0.00;0.00;;;;;;;;;;5064896;28;20021;-76
2022/11/14 07:55:37;;;;;;;0.00;0.00;;;;;;;;;;5062558;28;20114;-75
2022/11/14 07:58:03;;;;;;;0.00;0.00;;;;;;;;;;5067555;28;20029;-77
2022/11/14 08:00:30;;;;;;;0.00;0.00;;;;;;;;;;5071029;28;20411;-78
2022/11/14 08:02:56;;;;;;;0.00;0.00;;;;;;;;;;5069990;28;20086;-78
2022/11/14 08:05:22;;;;;;;0.00;0.00;;;;;;;;;;5073279;28;20181;-74
2022/11/14 08:07:52;;;;;;;0.00;0.00;;;;;;;;;;5073389;28;20021;-76
2022/11/14 08:10:18;;;;;;;0.00;0.00;;;;;;;;;;5073689;28;20020;-75
2022/11/14 08:12:45;;;;;;;0.00;0.00;;;;;;;;;;5073237;28;20021;-74
2022/11/14 08:15:12;;;;;;;0.00;0.00;;;;;;;;;;5073938;28;20040;-76
2022/11/14 08:17:39;;;;;;;0.00;0.00;;;;;;;;;;5089804;28;20395;-79
2022/11/14 08:20:07;;;;;;;0.00;0.00;;;;;;;;;;5092675;28;20024;-79
2022/11/14 08:22:33;;;;;;;0.00;0.00;;;;;;;;;;5091498;28;20095;-76
2022/11/14 08:24:59;;;;;;;0.00;0.00;;;;;;;;;;5091882;28;20028;-73
2022/11/14 08:27:26;;;;;;;0.00;0.00;;;;;;;;;;5093708;28;20027;-74
2022/11/14 08:29:52;;;;;;;0.00;0.00;;;;;;;;;;5094287;28;20024;-73
2022/11/14 08:32:20;;;;;;;0.00;0.00;;;;;;;;;;5092383;28;20020;-73
2022/11/14 08:34:46;;;;;;;0.00;0.00;;;;;;;;;;5091236;28;20020;-74
2022/11/14 08:37:12;;;;;;;0.00;0.00;;;;;;;;;;5092537;28;20028;-76
2022/11/14 08:39:39;;;;;;;0.00;0.00;;;;;;;;;;5093932;28;20024;-72
2022/11/14 08:42:05;;;;;;;0.00;0.00;;;;;;;;;;5093770;28;20024;-73
2022/11/14 08:44:31;;;;;;;0.00;0.00;;;;;;;;;;5071488;28;20475;-75
2022/11/14 08:46:59;;;;;;;0.00;0.00;;;;;;;;;;5091850;28;20108;-74
2022/11/14 08:49:25;;;;;;;0.00;0.00;;;;;;;;;;5090894;28;20463;-77
2022/11/14 08:51:52;;;;;;;0.00;0.00;;;;;;;;;;5072123;28;20054;-74
2022/11/14 08:54:19;;;;;;;0.00;0.00;;;;;;;;;;5093356;28;20387;-72
2022/11/14 08:56:46;;;;;;;0.00;0.00;;;;;;;;;;5089637;28;20059;-74
2022/11/14 08:59:12;;;;;;;0.00;0.00;;;;;;;;;;5092299;28;20031;-72
2022/11/14 09:01:39;;;;;;;0.00;0.00;;;;;;;;;;5092907;28;20024;-74
2022/11/14 09:04:05;;;;;;;0.00;0.00;;;;;;;;;;5091703;28;20047;-73
2022/11/14 09:06:31;;;;;;;0.00;0.00;;;;;;;;;;5071498;28;20068;-71
2022/11/14 09:08:58;;;;;;;0.00;0.00;;;;;;;;;;5073794;28;20020;-72
2022/11/14 09:11:24;;;;;;;0.00;0.00;;;;;;;;;;5070311;28;20020;-73
2022/11/14 09:13:50;;;;;;;0.00;0.00;;;;;;;;;;5068333;28;20404;-72
2022/11/14 09:16:16;;;;;;;0.00;0.00;;;;;;;;;;5089662;28;20036;-73
2022/11/14 09:18:43;;;;;;;0.00;0.00;;;;;;;;;;5088159;28;20380;-73
2022/11/14 09:21:11;;;;;;;0.00;0.00;;;;;;;;;;5070532;28;20020;-70
2022/11/14 09:23:37;;;;;;;0.00;0.00;;;;;;;;;;5087077;28;20075;-71
2022/11/14 09:26:07;;;;;;;0.00;0.00;;;;;;;;;;5088004;28;20027;-71
2022/11/14 09:28:33;;;;;;;0.00;0.00;;;;;;;;;;5087656;28;20052;-74
2022/11/14 09:31:03;;;;;;;0.00;0.00;;;;;;;;;;5090017;28;20020;-73
2022/11/14 09:33:30;;;;;;;0.00;0.00;;;;;;;;;;5090957;28;20383;-74
2022/11/14 09:36:00;;;;;;;0.00;0.00;;;;;;;;;;5071400;28;20442;-74
2022/11/14 09:38:26;;;;;;;0.00;0.00;;;;;;;;;;5093409;28;20543;-74
2022/11/14 09:41:15;;;;;;;0.00;0.00;;;;;;;;;;5089500;28;20042;-72
2022/11/14 09:43:41;;;;;;;0.00;0.00;;;;;;;;;;5086020;28;20107;-75
2022/11/14 09:46:27;;;;;;;0.00;0.00;;;;;;;;;;5090958;28;20024;-72
2022/11/14 09:48:53;;;;;;;0.00;0.00;;;;;;;;;;5090313;28;20024;-71
2022/11/14 09:51:21;;;;;;;0.00;0.00;;;;;;;;;;5090043;28;20020;-71
2022/11/14 09:53:59;;;;;;;0.00;0.00;;;;;;;;;;5089908;28;20028;-72
2022/11/14 09:56:26;;;;;;;0.00;0.00;;;;;;;;;;5072154;28;20025;-72
2022/11/14 09:58:56;;;;;;;0.00;0.00;;;;;;;;;;5073116;28;20049;-74
2022/11/14 10:01:34;;;;;;;0.00;0.00;;;;;;;;;;5071924;28;20028;-73
2022/11/14 10:04:15;;;;;;;0.00;0.00;;;;;;;;;;5085393;28;20111;-73
2022/11/14 10:06:48;;;;;;;0.00;0.00;;;;;;;;;;5091236;28;20116;-73
2022/11/14 10:09:14;;;;;;;0.00;0.00;;;;;;;;;;5091641;28;20460;-72
2022/11/14 10:11:47;;;;;;;0.00;0.00;;;;;;;;;;5069469;28;20032;-73
2022/11/14 10:14:32;;;;;;;0.00;0.00;;;;;;;;;;5086104;28;20050;-72
2022/11/14 10:16:58;;;;;;;0.00;0.00;;;;;;;;;;5071874;28;20024;-74
2022/11/14 10:19:33;;;;;;;0.00;0.00;;;;;;;;;;5091105;28;20028;-73
2022/11/14 10:21:59;;;;;;;0.00;0.00;;;;;;;;;;5071185;28;20027;-73
2022/11/14 10:24:32;;;;;;;0.00;0.00;;;;;;;;;;5073293;28;20028;-73
2022/11/14 10:27:05;;;;;;;0.00;0.00;;;;;;;;;;5089448;28;20065;-74
2022/11/14 10:29:54;;;;;;;0.00;0.00;;;;;;;;;;5073808;28;20052;-72
2022/11/14 10:32:32;;;;;;;0.00;0.00;;;;;;;;;;5090054;28;20024;-72
2022/11/14 10:35:01;;;;;;;0.00;0.00;;;;;;;;;;5089142;28;20115;-73
2022/11/14 10:37:53;;;;;;;0.00;0.00;;;;;;;;;;5071610;28;20085;-72
2022/11/14 10:40:19;;;;;;;0.00;0.00;;;;;;;;;;5087497;28;20020;-72
2022/11/14 10:42:49;;;;;;;0.00;0.00;;;;;;;;;;5072651;28;20582;-71
2022/11/14 10:45:34;;;;;;;0.00;0.00;;;;;;;;;;5084352;28;20110;-73
2022/11/14 10:48:09;;;;;;;0.00;0.00;;;;;;;;;;5088923;28;20020;-74
2022/11/14 10:50:44;;;;;;;0.00;0.00;;;;;;;;;;5090485;28;20562;-73
2022/11/14 10:53:16;;;;;;;0.00;0.00;;;;;;;;;;5069487;28;20402;-72
2022/11/14 10:55:42;;;;;;;0.00;0.00;;;;;;;;;;5086629;28;20492;-72
2022/11/14 10:58:09;;;;;;;0.00;0.00;;;;;;;;;;5083536;28;20024;-71
2022/11/14 11:00:36;;;;;;;0.00;0.00;;;;;;;;;;5088987;28;20353;-73
2022/11/14 11:03:02;;;;;;;0.00;0.00;;;;;;;;;;5088305;28;20028;-72
2022/11/14 11:05:30;;;;;;;0.00;0.00;;;;;;;;;;5072566;28;20032;-71
2022/11/14 11:13:32;;;;;;;0.00;0.00;;;;;;;;;;5087884;28;20052;-72
2022/11/14 11:15:59;;;;;;;0.00;0.00;;;;;;;;;;5070652;28;20027;-69
2022/11/14 11:18:27;;;;;;;0.00;0.00;;;;;;;;;;5088594;28;20040;-73
2022/11/14 11:21:10;;;;;;;0.00;0.00;;;;;;;;;;5069474;28;20028;-71
2022/11/14 11:23:47;;;;;;;0.00;0.00;;;;;;;;;;5072138;28;20341;-70
2022/11/14 11:26:33;;;;;;;0.00;0.00;;;;;;;;;;5069728;28;20545;-72
2022/11/14 11:29:05;;;;;;;0.00;0.00;;;;;;;;;;5084450;28;20024;-72
2022/11/14 11:31:50;;;;;;;0.00;0.00;;;;;;;;;;5082437;28;20054;-72
2022/11/14 11:34:19;;;;;;;0.00;0.00;;;;;;;;;;5093041;28;20032;-70
2022/11/14 11:36:49;;;;;;;0.00;0.00;;;;;;;;;;5092901;28;20477;-70
2022/11/14 11:39:23;;;;;;;0.00;0.00;;;;;;;;;;5073857;28;20055;-71
2022/11/14 11:41:49;;;;;;;0.00;0.00;;;;;;;;;;5090490;28;20107;-73
2022/11/14 11:44:16;;;;;;;0.00;0.00;;;;;;;;;;5090317;28;20030;-70
2022/11/14 11:46:43;;;;;;;0.00;0.00;;;;;;;;;;5091835;28;20089;-72
2022/11/14 11:49:32;;;;;;;0.00;0.00;;;;;;;;;;5088473;28;20024;-71
2022/11/14 11:52:02;;;;;;;0.00;0.00;;;;;;;;;;5077387;28;20116;-72
2022/11/14 11:54:36;;;;;;;0.00;0.00;;;;;;;;;;5087062;28;20032;-71
2022/11/14 11:57:05;;;;;;;0.00;0.00;;;;;;;;;;5071348;28;20560;-70
2022/11/14 11:59:41;;;;;;;0.00;0.00;;;;;;;;;;5092341;28;20496;-70
2022/11/14 12:02:28;;;;;;;0.00;0.00;;;;;;;;;;5090889;28;20036;-72
2022/11/14 12:04:56;;;;;;;0.00;0.00;;;;;;;;;;5074835;28;20119;-72
2022/11/14 12:07:30;;;;;;;0.00;0.00;;;;;;;;;;5075098;28;20024;-73
2022/11/14 12:09:57;;;;;;;0.00;0.00;;;;;;;;;;5091160;28;20017;-72
2022/11/14 12:12:52;;;;;;;0.00;0.00;;;;;;;;;;5091579;28;20099;-72
2022/11/14 12:15:21;;;;;;;0.00;0.00;;;;;;;;;;5092752;28;20040;-73
2022/11/14 12:18:05;;;;;;;0.00;0.00;;;;;;;;;;5094488;28;20115;-74
2022/11/14 12:20:32;;;;;;;0.00;0.00;;;;;;;;;;5091112;28;20085;-73
2022/11/14 12:23:17;;;;;;;0.00;0.00;;;;;;;;;;5075031;28;20024;-72
2022/11/14 12:25:46;;;;;;;0.00;0.00;;;;;;;;;;5091672;28;20020;-72
2022/11/14 12:28:32;;;;;;;0.00;0.00;;;;;;;;;;5094208;28;20028;-72
2022/11/14 12:31:00;;;;;;;0.00;0.00;;;;;;;;;;5021157;28;20032;-71
2022/11/14 12:33:32;;;;;;;0.00;0.00;;;;;;;;;;5072622;28;20020;-71
2022/11/14 12:36:00;;;;;;;0.00;0.00;;;;;;;;;;5092877;28;20031;-72
2022/11/14 12:38:29;;;;;;;0.00;0.00;;;;;;;;;;5091663;28;20488;-70
2022/11/14 12:40:57;;;;;;;0.00;0.00;;;;;;;;;;5095052;28;20048;-70
2022/11/14 12:43:28;;;;;;;0.00;0.00;;;;;;;;;;5073853;28;20495;-71
2022/11/14 12:45:58;;;;;;;0.00;0.00;;;;;;;;;;5092933;28;20095;-70
2022/11/14 12:48:30;;;;;;;0.00;0.00;;;;;;;;;;5094361;28;20024;-70
2022/11/14 12:50:57;;;;;;;0.00;0.00;;;;;;;;;;5089686;28;20020;-70
2022/11/14 12:53:39;;;;;;;0.00;0.00;;;;;;;;;;5074925;28;20020;-69
2022/11/14 12:56:14;;;;;;;0.00;0.00;;;;;;;;;;5075156;28;20028;-71
2022/11/14 12:58:58;;;;;;;0.00;0.00;;;;;;;;;;5091991;28;20357;-71
2022/11/14 13:01:31;;;;;;;0.00;0.00;;;;;;;;;;5081647;28;20036;-70
2022/11/14 13:04:16;;;;;;;0.00;0.00;;;;;;;;;;5074323;28;20024;-69
2022/11/14 13:06:47;;;;;;;0.00;0.00;;;;;;;;;;5073248;28;20424;-69
2022/11/14 13:09:34;;;;;;;0.00;0.00;;;;;;;;;;5092837;28;20054;-71
2022/11/14 13:24:01;;;;;;;0.00;0.00;;;;;;;;;;5052043;28;20036;-70
2022/11/14 13:26:27;;;;;;;0.00;0.00;;;;;;;;;;5048498;28;20039;-71
2022/11/14 13:28:53;;;;;;;0.00;0.00;;;;;;;;;;5053258;28;20427;-71
2022/11/14 13:31:21;;;;;;;0.00;0.00;;;;;;;;;;5051177;28;20480;-71
2022/11/14 13:33:49;;;;;;;0.00;0.00;;;;;;;;;;5053992;28;20029;-71
2022/11/14 13:36:18;;;;;;;0.00;0.00;;;;;;;;;;5054805;28;20028;-71
2022/11/14 13:38:56;;;;;;;0.00;0.00;;;;;;;;;;5051617;28;20074;-72
2022/11/14 13:41:32;;;;;;;0.00;0.00;;;;;;;;;;5052361;28;20519;-71
2022/11/14 13:44:10;;;;;;;0.00;0.00;;;;;;;;;;5048084;28;20025;-71
2022/11/14 13:46:57;;;;;;;0.00;0.00;;;;;;;;;;5048049;28;20017;-69
2022/11/14 13:49:45;;;;;;;0.00;0.00;;;;;;;;;;5048696;28;20515;-71
2022/11/14 13:52:12;;;;;;;0.00;0.00;;;;;;;;;;5052384;28;20067;-71
2022/11/14 13:54:45;;;;;;;0.00;0.00;;;;;;;;;;5049460;28;20476;-71
2022/11/14 13:57:25;;;;;;;0.00;0.00;;;;;;;;;;5048198;28;20021;-71
2022/11/14 13:59:55;;;;;;;0.00;0.00;;;;;;;;;;5053035;28;20029;-70
2022/11/14 14:02:40;;;;;;;0.00;0.00;;;;;;;;;;5043875;28;20053;-71
2022/11/14 14:05:06;;;;;;;0.00;0.00;;;;;;;;;;5051156;28;20528;-71
2022/11/14 14:07:38;;;;;;;0.00;0.00;;;;;;;;;;5052100;28;20025;-71
2022/11/14 14:10:23;;;;;;;0.00;0.00;;;;;;;;;;5052539;28;20667;-72
2022/11/14 14:12:56;;;;;;;0.00;0.00;;;;;;;;;;5057629;28;20160;-71
2022/11/14 14:15:42;;;;;;;0.00;0.00;;;;;;;;;;5073277;28;20412;-71
2022/11/14 14:18:19;;;;;;;0.00;0.00;;;;;;;;;;5089352;28;20030;-71
2022/11/14 14:21:05;;;;;;;0.00;0.00;;;;;;;;;;5093614;28;20027;-71
2022/11/14 14:24:04;;;;;;;0.00;0.00;;;;;;;;;;5090784;28;20111;-71
2022/11/14 14:26:39;;;;;;;0.00;0.00;;;;;;;;;;5050867;28;20040;-71
2022/11/14 14:29:11;;;;;;;0.00;0.00;;;;;;;;;;5089567;28;20054;-71
2022/11/14 14:31:39;;;;;;;0.00;0.00;;;;;;;;;;5073933;28;20054;-71
2022/11/14 14:34:26;;;;;;;0.00;0.00;;;;;;;;;;5074706;28;20148;-70
2022/11/14 14:36:54;;;;;;;0.00;0.00;;;;;;;;;;5071174;28;20056;-70
2022/11/14 14:39:20;;;;;;;0.00;0.00;;;;;;;;;;5072611;28;20035;-70
2022/11/14 14:41:47;;;;;;;0.00;0.00;;;;;;;;;;5091721;28;20573;-71
2022/11/14 14:44:37;;;;;;;0.00;0.00;;;;;;;;;;5092729;28;20024;-71
2022/11/14 14:47:22;;;;;;;0.00;0.00;;;;;;;;;;5089119;28;20673;-71
2022/11/14 14:49:51;;;;;;;0.00;0.00;;;;;;;;;;5090995;28;20460;-70
2022/11/14 14:52:21;;;;;;;0.00;0.00;;;;;;;;;;5093837;28;20070;-71
2022/11/14 14:54:55;;;;;;;0.00;0.00;;;;;;;;;;5073477;28;20078;-71
2022/11/14 14:57:22;;;;;;;0.00;0.00;;;;;;;;;;5070729;28;20107;-70
2022/11/14 14:59:58;;;;;;;0.00;0.00;;;;;;;;;;5072544;28;20050;-71
2022/11/14 15:02:25;;;;;;;0.00;0.00;;;;;;;;;;5091651;28;20032;-71
2022/11/14 15:04:51;;;;;;;0.00;0.00;;;;;;;;;;5092047;28;20071;-72
2022/11/14 15:07:23;;;;;;;0.00;0.00;;;;;;;;;;5090714;28;20020;-70
2022/11/14 15:09:53;;;;;;;0.00;0.00;;;;;;;;;;5073555;28;20023;-70
2022/11/14 15:12:20;;;;;;;0.00;0.00;;;;;;;;;;5072597;28;20024;-70